sensor_id;sensor_type;location;lat;lon;timestamp;pressure;altitude;pressure_sealevel;temperature;humidity
27984;BME280;15317;50.360;8.726;2024-03-02T00:01:35;98372.19;;;3.43;100.00
27984;BME280;15317;50.360;8.726;2024-03-02T00:06:39;98365.84;;;3.44;100.00
27984;BME280;15317;50.360;8.726;2024-03-02T00:11:43;98360.88;;;3.49;100.00
27984;BME280;15317;50.360;8.726;2024-03-02T00:16:47;98360.88;;;3.49;100.00
27984;BME280;15317;50.360;8.726;2024-03-02T00:21:50;98353.13;;;3.46;100.00
27984;BME280;15317;50.360;8.726;2024-03-02T00:26:54;98360.06;;;3.39;100.00
27984;BME280;15317;50.360;8.726;2024-03-02T00:31:58;98349.88;;;3.33;100.00
27984;BME280;15317;50.360;8.726;2024-03-02T00:37:01;98334.38;;;3.27;100.00
27984;BME280;15317;50.360;8.726;2024-03-02T00:42:06;98334.09;;;3.21;100.00
27984;BME280;15317;50.360;8.726;2024-03-02T00:47:10;98335.03;;;3.29;100.00
27984;BME280;15317;50.360;8.726;2024-03-02T00:52:13;98335.75;;;3.31;100.00
27984;BME280;15317;50.360;8.726;2024-03-02T00:57:18;98344.94;;;3.29;100.00
27984;BME280;15317;50.360;8.726;2024-03-02T01:02:22;98336.75;;;3.30;100.00
27984;BME280;15317;50.360;8.726;2024-03-02T01:07:25;98340.13;;;3.32;100.00
27984;BME280;15317;50.360;8.726;2024-03-02T01:12:29;98338.84;;;3.36;100.00
27984;BME280;15317;50.360;8.726;2024-03-02T01:17:32;98351.59;;;3.34;100.00
27984;BME280;15317;50.360;8.726;2024-03-02T01:22:36;98339.56;;;3.38;100.00
27984;BME280;15317;50.360;8.726;2024-03-02T01:27:40;98338.16;;;3.34;100.00
27984;BME280;15317;50.360;8.726;2024-03-02T01:32:45;98351.00;;;3.31;100.00
27984;BME280;15317;50.360;8.726;2024-03-02T01:37:48;98350.47;;;3.27;100.00
27984;BME280;15317;50.360;8.726;2024-03-02T01:42:53;98345.50;;;3.32;100.00
27984;BME280;15317;50.360;8.726;2024-03-02T01:47:58;98346.22;;;3.34;100.00
27984;BME280;15317;50.360;8.726;2024-03-02T01:53:02;98336.88;;;3.29;100.00
27984;BME280;15317;50.360;8.726;2024-03-02T01:58:07;98329.81;;;3.28;100.00
27984;BME280;15317;50.360;8.726;2024-03-02T02:03:10;98315.84;;;3.24;100.00
27984;BME280;15317;50.360;8.726;2024-03-02T02:08:13;98311.03;;;3.37;100.00
27984;BME280;15317;50.360;8.726;2024-03-02T02:13:18;98306.25;;;3.31;100.00
27984;BME280;15317;50.360;8.726;2024-03-02T02:18:21;98301.13;;;3.28;100.00
27984;BME280;15317;50.360;8.726;2024-03-02T02:23:26;98294.81;;;3.20;100.00
27984;BME280;15317;50.360;8.726;2024-03-02T02:28:29;98293.53;;;3.33;100.00
27984;BME280;15317;50.360;8.726;2024-03-02T02:33:32;98290.84;;;3.33;100.00
27984;BME280;15317;50.360;8.726;2024-03-02T02:38:40;98290.03;;;3.70;100.00
27984;BME280;15317;50.360;8.726;2024-03-02T02:43:46;98279.66;;;3.94;100.00
27984;BME280;15317;50.360;8.726;2024-03-02T02:48:49;98283.00;;;3.96;100.00
27984;BME280;15317;50.360;8.726;2024-03-02T02:53:54;98284.13;;;4.03;100.00
27984;BME280;15317;50.360;8.726;2024-03-02T02:58:57;98280.50;;;3.94;100.00
27984;BME280;15317;50.360;8.726;2024-03-02T03:04:01;98277.66;;;3.96;100.00
27984;BME280;15317;50.360;8.726;2024-03-02T03:09:05;98274.97;;;3.96;100.00
27984;BME280;15317;50.360;8.726;2024-03-02T03:14:08;98271.69;;;4.02;100.00
27984;BME280;15317;50.360;8.726;2024-03-02T03:19:12;98272.53;;;4.03;100.00
27984;BME280;15317;50.360;8.726;2024-03-02T03:24:16;98273.38;;;4.03;100.00
27984;BME280;15317;50.360;8.726;2024-03-02T03:29:20;98275.91;;;4.05;100.00
27984;BME280;15317;50.360;8.726;2024-03-02T03:34:23;98274.78;;;4.07;100.00
27984;BME280;15317;50.360;8.726;2024-03-02T03:39:28;98266.84;;;4.15;100.00
27984;BME280;15317;50.360;8.726;2024-03-02T03:44:31;98270.41;;;4.33;100.00
27984;BME280;15317;50.360;8.726;2024-03-02T03:49:34;98268.16;;;4.29;100.00
27984;BME280;15317;50.360;8.726;2024-03-02T03:54:39;98271.00;;;4.27;100.00
27984;BME280;15317;50.360;8.726;2024-03-02T03:59:45;98280.44;;;4.31;100.00
27984;BME280;15317;50.360;8.726;2024-03-02T04:04:49;98280.91;;;4.27;100.00
27984;BME280;15317;50.360;8.726;2024-03-02T04:09:53;98289.34;;;4.32;100.00
27984;BME280;15317;50.360;8.726;2024-03-02T04:14:57;98280.66;;;4.20;100.00
27984;BME280;15317;50.360;8.726;2024-03-02T04:20:00;98277.88;;;4.12;100.00
27984;BME280;15317;50.360;8.726;2024-03-02T04:25:05;98279.56;;;4.13;100.00
27984;BME280;15317;50.360;8.726;2024-03-02T04:30:10;98280.94;;;4.17;100.00
27984;BME280;15317;50.360;8.726;2024-03-02T04:35:14;98278.81;;;4.21;100.00
27984;BME280;15317;50.360;8.726;2024-03-02T04:40:18;98276.97;;;4.21;100.00
27984;BME280;15317;50.360;8.726;2024-03-02T04:45:23;98272.28;;;4.23;100.00
27984;BME280;15317;50.360;8.726;2024-03-02T04:50:26;98282.59;;;4.28;100.00
27984;BME280;15317;50.360;8.726;2024-03-02T04:55:31;98279.44;;;4.32;100.00
27984;BME280;15317;50.360;8.726;2024-03-02T05:01:21;98278.19;;;4.36;100.00
27984;BME280;15317;50.360;8.726;2024-03-02T05:06:25;98282.13;;;4.32;100.00
27984;BME280;15317;50.360;8.726;2024-03-02T05:11:29;98288.00;;;4.18;100.00
27984;BME280;15317;50.360;8.726;2024-03-02T05:16:55;98290.94;;;4.25;100.00
27984;BME280;15317;50.360;8.726;2024-03-02T05:21:58;98285.72;;;4.23;100.00
27984;BME280;15317;50.360;8.726;2024-03-02T05:27:03;98289.50;;;4.30;100.00
27984;BME280;15317;50.360;8.726;2024-03-02T05:32:08;98296.66;;;4.40;100.00
27984;BME280;15317;50.360;8.726;2024-03-02T05:37:11;98303.44;;;4.44;100.00
27984;BME280;15317;50.360;8.726;2024-03-02T05:42:16;98304.34;;;4.34;100.00
27984;BME280;15317;50.360;8.726;2024-03-02T05:47:20;98315.09;;;4.34;100.00
27984;BME280;15317;50.360;8.726;2024-03-02T05:52:23;98319.28;;;4.47;100.00
27984;BME280;15317;50.360;8.726;2024-03-02T05:57:28;98319.84;;;4.50;100.00
27984;BME280;15317;50.360;8.726;2024-03-02T06:02:51;98323.44;;;4.59;100.00
27984;BME280;15317;50.360;8.726;2024-03-02T06:07:55;98326.22;;;4.67;100.00
27984;BME280;15317;50.360;8.726;2024-03-02T06:12:59;98331.00;;;4.73;100.00
27984;BME280;15317;50.360;8.726;2024-03-02T06:18:03;98318.47;;;4.64;100.00
27984;BME280;15317;50.360;8.726;2024-03-02T06:23:08;98339.53;;;4.68;100.00
27984;BME280;15317;50.360;8.726;2024-03-02T06:28:13;98340.06;;;4.72;100.00
27984;BME280;15317;50.360;8.726;2024-03-02T06:33:17;98346.72;;;4.78;100.00
27984;BME280;15317;50.360;8.726;2024-03-02T06:38:21;98344.41;;;4.83;100.00
27984;BME280;15317;50.360;8.726;2024-03-02T06:43:25;98342.56;;;4.83;100.00
27984;BME280;15317;50.360;8.726;2024-03-02T06:48:28;98346.16;;;4.92;100.00
27984;BME280;15317;50.360;8.726;2024-03-02T06:53:32;98351.19;;;5.04;100.00
27984;BME280;15317;50.360;8.726;2024-03-02T06:58:37;98352.03;;;5.05;100.00
27984;BME280;15317;50.360;8.726;2024-03-02T07:03:41;98348.56;;;5.12;100.00
27984;BME280;15317;50.360;8.726;2024-03-02T07:08:45;98348.88;;;5.09;100.00
27984;BME280;15317;50.360;8.726;2024-03-02T07:13:49;98366.41;;;5.13;100.00
27984;BME280;15317;50.360;8.726;2024-03-02T07:18:53;98368.94;;;5.15;100.00
27984;BME280;15317;50.360;8.726;2024-03-02T07:23:58;98365.34;;;5.24;100.00
27984;BME280;15317;50.360;8.726;2024-03-02T07:29:02;98370.31;;;5.19;100.00
27984;BME280;15317;50.360;8.726;2024-03-02T07:34:06;98377.03;;;5.15;100.00
27984;BME280;15317;50.360;8.726;2024-03-02T07:39:10;98374.72;;;5.20;100.00
27984;BME280;15317;50.360;8.726;2024-03-02T07:44:14;98379.66;;;5.25;100.00
27984;BME280;15317;50.360;8.726;2024-03-02T07:49:17;98381.25;;;5.18;100.00
27984;BME280;15317;50.360;8.726;2024-03-02T07:54:21;98376.03;;;5.16;100.00
27984;BME280;15317;50.360;8.726;2024-03-02T07:59:25;98386.84;;;5.77;100.00
27984;BME280;15317;50.360;8.726;2024-03-02T08:04:29;98390.06;;;6.58;100.00
27984;BME280;15317;50.360;8.726;2024-03-02T08:09:32;98393.06;;;6.89;100.00
27984;BME280;15317;50.360;8.726;2024-03-02T08:14:37;98391.69;;;8.16;100.00
27984;BME280;15317;50.360;8.726;2024-03-02T08:19:40;98397.97;;;7.84;100.00
27984;BME280;15317;50.360;8.726;2024-03-02T08:24:43;98392.06;;;7.57;100.00
27984;BME280;15317;50.360;8.726;2024-03-02T08:29:48;98387.94;;;7.20;100.00
27984;BME280;15317;50.360;8.726;2024-03-02T08:34:51;98391.25;;;6.98;100.00
27984;BME280;15317;50.360;8.726;2024-03-02T08:39:55;98389.22;;;7.00;100.00
27984;BME280;15317;50.360;8.726;2024-03-02T08:45:00;98387.88;;;7.04;100.00
27984;BME280;15317;50.360;8.726;2024-03-02T08:50:04;98396.19;;;7.19;100.00
27984;BME280;15317;50.360;8.726;2024-03-02T08:55:08;98394.31;;;7.11;100.00
27984;BME280;15317;50.360;8.726;2024-03-02T09:00:15;98408.88;;;7.26;100.00
27984;BME280;15317;50.360;8.726;2024-03-02T09:05:19;98406.00;;;7.28;100.00
27984;BME280;15317;50.360;8.726;2024-03-02T09:10:22;98410.63;;;7.43;100.00
27984;BME280;15317;50.360;8.726;2024-03-02T09:15:30;98405.53;;;7.40;100.00
27984;BME280;15317;50.360;8.726;2024-03-02T09:20:37;98410.59;;;7.35;100.00
27984;BME280;15317;50.360;8.726;2024-03-02T09:25:41;98414.47;;;7.41;100.00
27984;BME280;15317;50.360;8.726;2024-03-02T09:30:45;98410.13;;;7.72;100.00
27984;BME280;15317;50.360;8.726;2024-03-02T09:35:48;98403.88;;;7.88;100.00
27984;BME280;15317;50.360;8.726;2024-03-02T09:40:53;98407.25;;;7.90;100.00
27984;BME280;15317;50.360;8.726;2024-03-02T09:45:58;98396.78;;;8.03;100.00
27984;BME280;15317;50.360;8.726;2024-03-02T09:51:01;98403.50;;;8.23;100.00
27984;BME280;15317;50.360;8.726;2024-03-02T09:56:05;98384.91;;;8.28;100.00
27984;BME280;15317;50.360;8.726;2024-03-02T10:01:10;98379.50;;;8.45;100.00
27984;BME280;15317;50.360;8.726;2024-03-02T10:06:21;98394.44;;;8.80;100.00
27984;BME280;15317;50.360;8.726;2024-03-02T10:11:29;98394.28;;;8.73;100.00
27984;BME280;15317;50.360;8.726;2024-03-02T10:16:35;98393.47;;;9.03;100.00
27984;BME280;15317;50.360;8.726;2024-03-02T10:21:39;98390.75;;;9.03;100.00
27984;BME280;15317;50.360;8.726;2024-03-02T10:26:43;98397.34;;;9.40;100.00
27984;BME280;15317;50.360;8.726;2024-03-02T10:31:48;98387.44;;;9.24;100.00
27984;BME280;15317;50.360;8.726;2024-03-02T10:36:51;98385.34;;;9.34;100.00
27984;BME280;15317;50.360;8.726;2024-03-02T10:41:55;98381.28;;;9.99;100.00
27984;BME280;15317;50.360;8.726;2024-03-02T10:47:02;98378.59;;;10.51;100.00
27984;BME280;15317;50.360;8.726;2024-03-02T10:52:05;98371.69;;;10.48;100.00
27984;BME280;15317;50.360;8.726;2024-03-02T10:57:11;98367.56;;;10.52;100.00
27984;BME280;15317;50.360;8.726;2024-03-02T11:02:21;98359.91;;;11.06;100.00
27984;BME280;15317;50.360;8.726;2024-03-02T11:07:26;98356.69;;;11.32;100.00
27984;BME280;15317;50.360;8.726;2024-03-02T11:12:36;98352.31;;;11.74;100.00
27984;BME280;15317;50.360;8.726;2024-03-02T11:17:43;98348.31;;;12.47;100.00
27984;BME280;15317;50.360;8.726;2024-03-02T11:22:47;98353.66;;;12.34;100.00
27984;BME280;15317;50.360;8.726;2024-03-02T11:27:59;98344.59;;;11.99;100.00
27984;BME280;15317;50.360;8.726;2024-03-02T11:33:06;98348.69;;;12.44;100.00
27984;BME280;15317;50.360;8.726;2024-03-02T11:38:11;98342.41;;;12.43;100.00
27984;BME280;15317;50.360;8.726;2024-03-02T11:43:14;98345.13;;;12.43;94.63
27984;BME280;15317;50.360;8.726;2024-03-02T11:48:19;98339.88;;;12.76;95.50
27984;BME280;15317;50.360;8.726;2024-03-02T11:53:23;98343.06;;;12.80;91.91
27984;BME280;15317;50.360;8.726;2024-03-02T11:58:26;98334.34;;;12.63;93.94
27984;BME280;15317;50.360;8.726;2024-03-02T12:03:32;98330.84;;;12.69;90.93
27984;BME280;15317;50.360;8.726;2024-03-02T12:08:36;98311.88;;;12.48;94.68
27984;BME280;15317;50.360;8.726;2024-03-02T12:13:39;98307.47;;;13.49;96.22
27984;BME280;15317;50.360;8.726;2024-03-02T12:18:44;98308.78;;;14.12;81.56
27984;BME280;15317;50.360;8.726;2024-03-02T12:23:47;98308.13;;;14.23;78.50
27984;BME280;15317;50.360;8.726;2024-03-02T12:28:51;98303.91;;;14.20;82.09
27984;BME280;15317;50.360;8.726;2024-03-02T12:33:58;98295.53;;;13.89;80.90
27984;BME280;15317;50.360;8.726;2024-03-02T12:39:01;98289.19;;;14.28;78.42
27984;BME280;15317;50.360;8.726;2024-03-02T12:44:05;98284.38;;;14.50;76.16
27984;BME280;15317;50.360;8.726;2024-03-02T12:49:11;98284.13;;;14.58;76.20
27984;BME280;15317;50.360;8.726;2024-03-02T12:54:15;98280.22;;;14.92;70.39
27984;BME280;15317;50.360;8.726;2024-03-02T12:59:18;98271.03;;;14.80;69.45
27984;BME280;15317;50.360;8.726;2024-03-02T13:04:25;98272.94;;;15.17;69.08
27984;BME280;15317;50.360;8.726;2024-03-02T13:09:29;98267.66;;;15.22;67.75
27984;BME280;15317;50.360;8.726;2024-03-02T13:14:35;98241.44;;;15.08;67.09
27984;BME280;15317;50.360;8.726;2024-03-02T13:19:43;98239.25;;;15.23;63.55
27984;BME280;15317;50.360;8.726;2024-03-02T13:24:53;98236.91;;;15.90;60.92
27984;BME280;15317;50.360;8.726;2024-03-02T13:29:57;98245.25;;;15.70;62.33
27984;BME280;15317;50.360;8.726;2024-03-02T13:35:02;98248.88;;;15.64;63.80
27984;BME280;15317;50.360;8.726;2024-03-02T13:40:06;98244.38;;;15.76;59.96
27984;BME280;15317;50.360;8.726;2024-03-02T13:45:15;98238.78;;;15.33;62.47
27984;BME280;15317;50.360;8.726;2024-03-02T13:50:21;98239.63;;;15.33;63.59
27984;BME280;15317;50.360;8.726;2024-03-02T13:55:24;98223.41;;;15.32;63.61
27984;BME280;15317;50.360;8.726;2024-03-02T14:00:27;98213.00;;;15.16;64.34
27984;BME280;15317;50.360;8.726;2024-03-02T14:05:33;98217.28;;;15.68;65.76
27984;BME280;15317;50.360;8.726;2024-03-02T14:10:37;98216.00;;;15.39;64.10
27984;BME280;15317;50.360;8.726;2024-03-02T14:15:40;98212.69;;;15.87;63.65
27984;BME280;15317;50.360;8.726;2024-03-02T14:20:45;98201.66;;;15.43;63.31
27984;BME280;15317;50.360;8.726;2024-03-02T14:25:53;98195.88;;;15.83;62.09
27984;BME280;15317;50.360;8.726;2024-03-02T14:30:57;98191.69;;;15.24;62.30
27984;BME280;15317;50.360;8.726;2024-03-02T14:36:05;98181.88;;;14.79;63.46
27984;BME280;15317;50.360;8.726;2024-03-02T14:41:08;98182.47;;;14.87;62.63
27984;BME280;15317;50.360;8.726;2024-03-02T14:46:11;98172.59;;;14.35;67.21
27984;BME280;15317;50.360;8.726;2024-03-02T14:51:16;98171.97;;;14.40;66.03
27984;BME280;15317;50.360;8.726;2024-03-02T14:56:19;98166.16;;;14.10;66.63
27984;BME280;15317;50.360;8.726;2024-03-02T15:01:23;98158.63;;;13.92;70.46
27984;BME280;15317;50.360;8.726;2024-03-02T15:06:28;98147.78;;;13.66;68.50
27984;BME280;15317;50.360;8.726;2024-03-02T15:11:31;98148.00;;;13.64;74.33
27984;BME280;15317;50.360;8.726;2024-03-02T15:16:34;98140.66;;;13.32;70.80
27984;BME280;15317;50.360;8.726;2024-03-02T15:21:39;98139.22;;;13.29;72.03
27984;BME280;15317;50.360;8.726;2024-03-02T15:26:42;98133.91;;;12.88;78.44
27984;BME280;15317;50.360;8.726;2024-03-02T15:31:45;98122.31;;;12.60;79.15
27984;BME280;15317;50.360;8.726;2024-03-02T15:36:51;98124.69;;;12.15;99.47
27984;BME280;15317;50.360;8.726;2024-03-02T15:41:54;98120.47;;;11.72;100.00
27984;BME280;15317;50.360;8.726;2024-03-02T15:46:57;98115.53;;;11.26;100.00
27984;BME280;15317;50.360;8.726;2024-03-02T15:52:02;98111.22;;;11.04;100.00
27984;BME280;15317;50.360;8.726;2024-03-02T15:57:06;98109.53;;;10.82;100.00
27984;BME280;15317;50.360;8.726;2024-03-02T16:02:10;98108.25;;;10.78;100.00
27984;BME280;15317;50.360;8.726;2024-03-02T16:07:14;98113.69;;;10.78;100.00
27984;BME280;15317;50.360;8.726;2024-03-02T16:12:17;98112.38;;;10.74;100.00
27984;BME280;15317;50.360;8.726;2024-03-02T16:17:21;98105.00;;;10.67;100.00
27984;BME280;15317;50.360;8.726;2024-03-02T16:22:25;98095.72;;;10.55;100.00
27984;BME280;15317;50.360;8.726;2024-03-02T16:27:28;98103.53;;;10.44;100.00
27984;BME280;15317;50.360;8.726;2024-03-02T16:32:31;98086.25;;;10.30;100.00
27984;BME280;15317;50.360;8.726;2024-03-02T16:37:37;98089.47;;;10.19;100.00
27984;BME280;15317;50.360;8.726;2024-03-02T16:42:40;98091.34;;;10.04;100.00
27984;BME280;15317;50.360;8.726;2024-03-02T16:47:44;98098.44;;;10.05;100.00
27984;BME280;15317;50.360;8.726;2024-03-02T16:52:49;98106.16;;;9.86;100.00
27984;BME280;15317;50.360;8.726;2024-03-02T16:57:52;98100.06;;;9.70;100.00
27984;BME280;15317;50.360;8.726;2024-03-02T17:02:55;98098.88;;;9.43;100.00
27984;BME280;15317;50.360;8.726;2024-03-02T17:08:00;98102.31;;;9.22;100.00
27984;BME280;15317;50.360;8.726;2024-03-02T17:13:03;98106.69;;;8.94;100.00
27984;BME280;15317;50.360;8.726;2024-03-02T17:18:06;98109.56;;;8.69;100.00
27984;BME280;15317;50.360;8.726;2024-03-02T17:23:11;98118.91;;;8.44;100.00
27984;BME280;15317;50.360;8.726;2024-03-02T17:28:21;98116.81;;;8.23;100.00
27984;BME280;15317;50.360;8.726;2024-03-02T17:33:25;98117.56;;;8.09;100.00
27984;BME280;15317;50.360;8.726;2024-03-02T17:38:30;98119.03;;;7.89;100.00
27984;BME280;15317;50.360;8.726;2024-03-02T17:43:34;98131.75;;;7.72;100.00
27984;BME280;15317;50.360;8.726;2024-03-02T17:48:37;98122.50;;;7.59;100.00
27984;BME280;15317;50.360;8.726;2024-03-02T17:53:44;98129.31;;;7.46;100.00
27984;BME280;15317;50.360;8.726;2024-03-02T17:58:47;98119.91;;;7.34;100.00
27984;BME280;15317;50.360;8.726;2024-03-02T18:03:51;98121.59;;;7.27;100.00
27984;BME280;15317;50.360;8.726;2024-03-02T18:08:55;98120.94;;;7.25;100.00
27984;BME280;15317;50.360;8.726;2024-03-02T18:13:59;98124.16;;;7.21;100.00
27984;BME280;15317;50.360;8.726;2024-03-02T18:19:02;98129.41;;;7.14;100.00
27984;BME280;15317;50.360;8.726;2024-03-02T18:24:12;98125.84;;;7.05;100.00
27984;BME280;15317;50.360;8.726;2024-03-02T18:29:15;98121.47;;;6.96;100.00
27984;BME280;15317;50.360;8.726;2024-03-02T18:34:19;98114.56;;;6.86;100.00
27984;BME280;15317;50.360;8.726;2024-03-02T18:39:23;98110.19;;;6.77;100.00
27984;BME280;15317;50.360;8.726;2024-03-02T18:44:26;98114.56;;;6.69;100.00
27984;BME280;15317;50.360;8.726;2024-03-02T18:49:30;98118.63;;;6.65;100.00
27984;BME280;15317;50.360;8.726;2024-03-02T18:54:34;98109.53;;;6.66;100.00
27984;BME280;15317;50.360;8.726;2024-03-02T18:59:38;98102.13;;;6.68;100.00
27984;BME280;15317;50.360;8.726;2024-03-02T19:04:41;98094.34;;;6.73;100.00
27984;BME280;15317;50.360;8.726;2024-03-02T19:09:46;98097.72;;;6.75;100.00
27984;BME280;15317;50.360;8.726;2024-03-02T19:14:49;98098.06;;;6.72;100.00
27984;BME280;15317;50.360;8.726;2024-03-02T19:19:52;98102.44;;;6.65;100.00
27984;BME280;15317;50.360;8.726;2024-03-02T19:24:57;98104.81;;;6.60;100.00
27984;BME280;15317;50.360;8.726;2024-03-02T19:30:01;98098.41;;;6.53;100.00
27984;BME280;15317;50.360;8.726;2024-03-02T19:35:07;98107.66;;;6.51;100.00
27984;BME280;15317;50.360;8.726;2024-03-02T19:40:12;98104.13;;;6.58;100.00
27984;BME280;15317;50.360;8.726;2024-03-02T19:45:16;98103.47;;;6.72;100.00
27984;BME280;15317;50.360;8.726;2024-03-02T19:50:19;98089.97;;;6.81;100.00
27984;BME280;15317;50.360;8.726;2024-03-02T19:55:23;98086.75;;;7.01;100.00
27984;BME280;15317;50.360;8.726;2024-03-02T20:00:31;98083.81;;;7.27;100.00
27984;BME280;15317;50.360;8.726;2024-03-02T20:05:34;98080.56;;;7.32;100.00
27984;BME280;15317;50.360;8.726;2024-03-02T20:10:39;98081.25;;;7.34;100.00
27984;BME280;15317;50.360;8.726;2024-03-02T20:15:45;98079.09;;;7.21;100.00
27984;BME280;15317;50.360;8.726;2024-03-02T20:20:48;98087.53;;;7.10;100.00
27984;BME280;15317;50.360;8.726;2024-03-02T20:25:53;98082.84;;;7.04;100.00
27984;BME280;15317;50.360;8.726;2024-03-02T20:31:00;98086.75;;;6.93;100.00
27984;BME280;15317;50.360;8.726;2024-03-02T20:36:03;98099.41;;;6.77;100.00
27984;BME280;15317;50.360;8.726;2024-03-02T20:41:15;98099.41;;;6.60;100.00
27984;BME280;15317;50.360;8.726;2024-03-02T20:46:19;98094.88;;;6.61;100.00
27984;BME280;15317;50.360;8.726;2024-03-02T20:51:22;98098.38;;;6.69;100.00
27984;BME280;15317;50.360;8.726;2024-03-02T20:56:32;98096.22;;;6.81;100.00
27984;BME280;15317;50.360;8.726;2024-03-02T21:01:37;98097.69;;;6.92;100.00
27984;BME280;15317;50.360;8.726;2024-03-02T21:06:41;98099.69;;;7.14;100.00
27984;BME280;15317;50.360;8.726;2024-03-02T21:11:47;98091.94;;;7.11;100.00
27984;BME280;15317;50.360;8.726;2024-03-02T21:16:50;98083.38;;;6.91;100.00
27984;BME280;15317;50.360;8.726;2024-03-02T21:21:54;98081.72;;;6.66;100.00
27984;BME280;15317;50.360;8.726;2024-03-02T21:27:02;98078.34;;;6.48;100.00
27984;BME280;15317;50.360;8.726;2024-03-02T21:32:05;98089.44;;;6.37;100.00
27984;BME280;15317;50.360;8.726;2024-03-02T21:37:08;98086.25;;;6.33;100.00
27984;BME280;15317;50.360;8.726;2024-03-02T21:42:13;98080.53;;;6.36;100.00
27984;BME280;15317;50.360;8.726;2024-03-02T21:47:16;98075.13;;;6.36;100.00
27984;BME280;15317;50.360;8.726;2024-03-02T21:52:20;98079.34;;;6.39;100.00
27984;BME280;15317;50.360;8.726;2024-03-02T21:57:26;98064.69;;;6.33;100.00
27984;BME280;15317;50.360;8.726;2024-03-02T22:02:29;98064.66;;;6.17;100.00
27984;BME280;15317;50.360;8.726;2024-03-02T22:07:32;98053.19;;;5.90;100.00
27984;BME280;15317;50.360;8.726;2024-03-02T22:12:37;98057.97;;;5.71;100.00
27984;BME280;15317;50.360;8.726;2024-03-02T22:17:40;98060.78;;;5.53;100.00
27984;BME280;15317;50.360;8.726;2024-03-02T22:22:43;98053.34;;;5.39;100.00
27984;BME280;15317;50.360;8.726;2024-03-02T22:27:48;98050.06;;;5.27;100.00
27984;BME280;15317;50.360;8.726;2024-03-02T22:32:57;98065.72;;;5.24;100.00
27984;BME280;15317;50.360;8.726;2024-03-02T22:38:00;98055.91;;;5.14;100.00
27984;BME280;15317;50.360;8.726;2024-03-02T22:43:04;98058.19;;;5.01;100.00
27984;BME280;15317;50.360;8.726;2024-03-02T22:48:08;98062.00;;;4.91;100.00
27984;BME280;15317;50.360;8.726;2024-03-02T22:53:11;98071.72;;;4.84;100.00
27984;BME280;15317;50.360;8.726;2024-03-02T22:58:15;98070.66;;;4.76;100.00
27984;BME280;15317;50.360;8.726;2024-03-02T23:03:19;98066.38;;;4.66;100.00
27984;BME280;15317;50.360;8.726;2024-03-02T23:08:22;98061.78;;;4.58;100.00
27984;BME280;15317;50.360;8.726;2024-03-02T23:13:27;98062.19;;;4.46;100.00
27984;BME280;15317;50.360;8.726;2024-03-02T23:18:30;98061.81;;;4.41;100.00
27984;BME280;15317;50.360;8.726;2024-03-02T23:23:34;98060.47;;;4.36;100.00
27984;BME280;15317;50.360;8.726;2024-03-02T23:28:38;98069.81;;;4.32;100.00
27984;BME280;15317;50.360;8.726;2024-03-02T23:33:41;98067.59;;;4.28;100.00
27984;BME280;15317;50.360;8.726;2024-03-02T23:38:45;98056.28;;;4.24;100.00
27984;BME280;15317;50.360;8.726;2024-03-02T23:43:50;98057.47;;;4.22;100.00
27984;BME280;15317;50.360;8.726;2024-03-02T23:48:53;98043.81;;;4.15;100.00
27984;BME280;15317;50.360;8.726;2024-03-02T23:53:57;98059.38;;;4.12;100.00
27984;BME280;15317;50.360;8.726;2024-03-02T23:59:01;98058.16;;;4.06;100.00
